sensor_id;sensor_type;location;lat;lon;timestamp;P1;durP1;ratioP1;P2;durP2;ratioP2
8803;SDS011;4438;50.890;4.726;2023-07-20T00:01:18;3.63;;;3.27;;
8803;SDS011;4438;50.890;4.726;2023-07-20T00:03:44;4.93;;;3.23;;
8803;SDS011;4438;50.890;4.726;2023-07-20T00:06:10;4.93;;;3.30;;
8803;SDS011;4438;50.890;4.726;2023-07-20T00:08:36;4.10;;;3.10;;
8803;SDS011;4438;50.890;4.726;2023-07-20T00:11:02;5.23;;;3.37;;
8803;SDS011;4438;50.890;4.726;2023-07-20T00:13:28;4.03;;;3.17;;
8803;SDS011;4438;50.890;4.726;2023-07-20T00:15:54;4.57;;;3.30;;
8803;SDS011;4438;50.890;4.726;2023-07-20T00:18:20;4.53;;;3.00;;
8803;SDS011;4438;50.890;4.726;2023-07-20T00:20:46;6.90;;;3.93;;
8803;SDS011;4438;50.890;4.726;2023-07-20T00:23:12;4.83;;;3.20;;
8803;SDS011;4438;50.890;4.726;2023-07-20T00:25:39;3.67;;;3.10;;
8803;SDS011;4438;50.890;4.726;2023-07-20T00:28:05;5.73;;;3.70;;
8803;SDS011;4438;50.890;4.726;2023-07-20T00:30:31;4.40;;;3.17;;
8803;SDS011;4438;50.890;4.726;2023-07-20T00:32:57;5.50;;;3.00;;
8803;SDS011;4438;50.890;4.726;2023-07-20T00:35:23;3.47;;;3.10;;
8803;SDS011;4438;50.890;4.726;2023-07-20T00:37:49;6.67;;;3.73;;
8803;SDS011;4438;50.890;4.726;2023-07-20T00:40:15;5.40;;;3.50;;
8803;SDS011;4438;50.890;4.726;2023-07-20T00:42:43;5.50;;;3.60;;
8803;SDS011;4438;50.890;4.726;2023-07-20T00:45:09;9.03;;;3.60;;
8803;SDS011;4438;50.890;4.726;2023-07-20T00:47:35;3.87;;;3.17;;
8803;SDS011;4438;50.890;4.726;2023-07-20T00:50:02;5.03;;;3.10;;
8803;SDS011;4438;50.890;4.726;2023-07-20T00:52:28;3.90;;;2.97;;
8803;SDS011;4438;50.890;4.726;2023-07-20T00:54:55;5.80;;;3.70;;
8803;SDS011;4438;50.890;4.726;2023-07-20T00:57:21;5.80;;;3.70;;
8803;SDS011;4438;50.890;4.726;2023-07-20T00:59:48;5.27;;;3.27;;
8803;SDS011;4438;50.890;4.726;2023-07-20T01:02:14;4.97;;;3.40;;
8803;SDS011;4438;50.890;4.726;2023-07-20T01:04:40;5.73;;;3.57;;
8803;SDS011;4438;50.890;4.726;2023-07-20T01:07:52;5.43;;;3.60;;
8803;SDS011;4438;50.890;4.726;2023-07-20T01:12:47;3.87;;;3.13;;
8803;SDS011;4438;50.890;4.726;2023-07-20T01:15:14;5.50;;;3.60;;
8803;SDS011;4438;50.890;4.726;2023-07-20T01:17:40;4.77;;;3.63;;
8803;SDS011;4438;50.890;4.726;2023-07-20T01:20:06;4.83;;;3.97;;
8803;SDS011;4438;50.890;4.726;2023-07-20T01:33:09;5.33;;;3.57;;
8803;SDS011;4438;50.890;4.726;2023-07-20T01:35:36;4.27;;;3.60;;
8803;SDS011;4438;50.890;4.726;2023-07-20T01:38:02;4.17;;;3.23;;
8803;SDS011;4438;50.890;4.726;2023-07-20T01:40:29;4.13;;;3.67;;
8803;SDS011;4438;50.890;4.726;2023-07-20T01:42:55;6.27;;;3.80;;
8803;SDS011;4438;50.890;4.726;2023-07-20T01:45:21;4.97;;;4.00;;
8803;SDS011;4438;50.890;4.726;2023-07-20T01:47:47;5.20;;;3.63;;
8803;SDS011;4438;50.890;4.726;2023-07-20T01:50:13;7.60;;;4.70;;
8803;SDS011;4438;50.890;4.726;2023-07-20T01:52:39;4.97;;;3.87;;
8803;SDS011;4438;50.890;4.726;2023-07-20T01:55:06;5.93;;;4.10;;
8803;SDS011;4438;50.890;4.726;2023-07-20T01:57:32;8.17;;;4.10;;
8803;SDS011;4438;50.890;4.726;2023-07-20T01:59:58;7.47;;;4.50;;
8803;SDS011;4438;50.890;4.726;2023-07-20T02:02:25;6.60;;;4.37;;
8803;SDS011;4438;50.890;4.726;2023-07-20T02:04:52;7.47;;;5.13;;
8803;SDS011;4438;50.890;4.726;2023-07-20T02:07:18;9.93;;;5.20;;
8803;SDS011;4438;50.890;4.726;2023-07-20T02:09:44;6.33;;;4.90;;
8803;SDS011;4438;50.890;4.726;2023-07-20T02:12:10;7.97;;;4.67;;
8803;SDS011;4438;50.890;4.726;2023-07-20T02:14:36;7.33;;;4.90;;
8803;SDS011;4438;50.890;4.726;2023-07-20T02:17:02;6.53;;;4.90;;
8803;SDS011;4438;50.890;4.726;2023-07-20T02:19:29;8.10;;;5.20;;
8803;SDS011;4438;50.890;4.726;2023-07-20T02:21:55;6.30;;;5.10;;
8803;SDS011;4438;50.890;4.726;2023-07-20T02:24:22;9.00;;;5.47;;
8803;SDS011;4438;50.890;4.726;2023-07-20T02:26:48;7.57;;;5.33;;
8803;SDS011;4438;50.890;4.726;2023-07-20T02:29:14;8.60;;;4.77;;
8803;SDS011;4438;50.890;4.726;2023-07-20T02:31:40;10.87;;;5.97;;
8803;SDS011;4438;50.890;4.726;2023-07-20T02:34:08;8.67;;;6.37;;
8803;SDS011;4438;50.890;4.726;2023-07-20T02:36:34;8.90;;;5.50;;
8803;SDS011;4438;50.890;4.726;2023-07-20T02:39:00;7.47;;;5.50;;
8803;SDS011;4438;50.890;4.726;2023-07-20T02:41:33;8.17;;;5.53;;
8803;SDS011;4438;50.890;4.726;2023-07-20T02:43:59;8.57;;;5.43;;
8803;SDS011;4438;50.890;4.726;2023-07-20T02:46:25;8.23;;;5.20;;
8803;SDS011;4438;50.890;4.726;2023-07-20T02:48:51;10.33;;;6.17;;
8803;SDS011;4438;50.890;4.726;2023-07-20T02:51:17;6.57;;;5.40;;
8803;SDS011;4438;50.890;4.726;2023-07-20T02:53:46;7.57;;;5.73;;
8803;SDS011;4438;50.890;4.726;2023-07-20T02:56:12;9.30;;;5.43;;
8803;SDS011;4438;50.890;4.726;2023-07-20T02:58:40;10.63;;;5.80;;
8803;SDS011;4438;50.890;4.726;2023-07-20T03:01:08;5.50;;;5.00;;
8803;SDS011;4438;50.890;4.726;2023-07-20T03:03:36;9.87;;;5.77;;
8803;SDS011;4438;50.890;4.726;2023-07-20T03:06:04;6.80;;;6.10;;
8803;SDS011;4438;50.890;4.726;2023-07-20T03:08:30;7.17;;;5.43;;
8803;SDS011;4438;50.890;4.726;2023-07-20T03:10:56;8.30;;;6.27;;
8803;SDS011;4438;50.890;4.726;2023-07-20T03:13:22;9.50;;;5.17;;
8803;SDS011;4438;50.890;4.726;2023-07-20T03:15:49;8.80;;;6.53;;
8803;SDS011;4438;50.890;4.726;2023-07-20T03:18:15;8.87;;;6.60;;
8803;SDS011;4438;50.890;4.726;2023-07-20T03:20:41;8.40;;;6.67;;
8803;SDS011;4438;50.890;4.726;2023-07-20T03:23:07;7.63;;;6.00;;
8803;SDS011;4438;50.890;4.726;2023-07-20T03:25:33;10.37;;;7.30;;
8803;SDS011;4438;50.890;4.726;2023-07-20T03:28:02;8.40;;;6.50;;
8803;SDS011;4438;50.890;4.726;2023-07-20T03:30:28;8.67;;;6.20;;
8803;SDS011;4438;50.890;4.726;2023-07-20T03:32:54;8.53;;;6.50;;
8803;SDS011;4438;50.890;4.726;2023-07-20T03:35:20;7.87;;;6.50;;
8803;SDS011;4438;50.890;4.726;2023-07-20T03:37:47;9.03;;;5.90;;
8803;SDS011;4438;50.890;4.726;2023-07-20T03:40:13;7.40;;;6.03;;
8803;SDS011;4438;50.890;4.726;2023-07-20T03:42:40;8.23;;;7.30;;
8803;SDS011;4438;50.890;4.726;2023-07-20T03:45:06;9.47;;;6.90;;
8803;SDS011;4438;50.890;4.726;2023-07-20T03:47:33;12.07;;;7.97;;
8803;SDS011;4438;50.890;4.726;2023-07-20T03:49:59;9.17;;;7.43;;
8803;SDS011;4438;50.890;4.726;2023-07-20T03:52:25;7.73;;;6.93;;
8803;SDS011;4438;50.890;4.726;2023-07-20T03:54:51;9.70;;;7.73;;
8803;SDS011;4438;50.890;4.726;2023-07-20T03:57:17;11.47;;;8.43;;
8803;SDS011;4438;50.890;4.726;2023-07-20T03:59:46;11.03;;;8.10;;
8803;SDS011;4438;50.890;4.726;2023-07-20T04:02:12;11.93;;;7.90;;
8803;SDS011;4438;50.890;4.726;2023-07-20T04:04:38;9.20;;;7.90;;
8803;SDS011;4438;50.890;4.726;2023-07-20T04:07:04;11.50;;;9.03;;
8803;SDS011;4438;50.890;4.726;2023-07-20T04:09:31;10.40;;;8.50;;
8803;SDS011;4438;50.890;4.726;2023-07-20T04:11:57;10.37;;;8.53;;
8803;SDS011;4438;50.890;4.726;2023-07-20T04:14:23;10.53;;;8.10;;
8803;SDS011;4438;50.890;4.726;2023-07-20T04:16:49;12.07;;;9.00;;
8803;SDS011;4438;50.890;4.726;2023-07-20T04:19:16;12.73;;;9.07;;
8803;SDS011;4438;50.890;4.726;2023-07-20T04:21:43;9.47;;;8.43;;
8803;SDS011;4438;50.890;4.726;2023-07-20T04:24:09;10.13;;;8.27;;
8803;SDS011;4438;50.890;4.726;2023-07-20T04:26:35;12.00;;;8.60;;
8803;SDS011;4438;50.890;4.726;2023-07-20T04:29:01;10.50;;;8.33;;
8803;SDS011;4438;50.890;4.726;2023-07-20T04:31:28;11.10;;;8.23;;
8803;SDS011;4438;50.890;4.726;2023-07-20T04:33:57;9.40;;;8.17;;
8803;SDS011;4438;50.890;4.726;2023-07-20T04:36:23;13.10;;;9.67;;
8803;SDS011;4438;50.890;4.726;2023-07-20T04:38:49;10.97;;;9.03;;
8803;SDS011;4438;50.890;4.726;2023-07-20T04:41:15;9.63;;;8.27;;
8803;SDS011;4438;50.890;4.726;2023-07-20T04:43:42;13.00;;;9.00;;
8803;SDS011;4438;50.890;4.726;2023-07-20T04:46:08;10.97;;;8.87;;
8803;SDS011;4438;50.890;4.726;2023-07-20T04:48:34;11.37;;;9.17;;
8803;SDS011;4438;50.890;4.726;2023-07-20T04:51:00;11.90;;;8.70;;
8803;SDS011;4438;50.890;4.726;2023-07-20T04:53:27;10.77;;;9.00;;
8803;SDS011;4438;50.890;4.726;2023-07-20T04:55:53;12.77;;;9.40;;
8803;SDS011;4438;50.890;4.726;2023-07-20T04:58:19;11.67;;;9.23;;
8803;SDS011;4438;50.890;4.726;2023-07-20T05:00:46;12.10;;;10.13;;
8803;SDS011;4438;50.890;4.726;2023-07-20T05:03:12;12.57;;;9.87;;
8803;SDS011;4438;50.890;4.726;2023-07-20T05:05:38;12.27;;;9.93;;
8803;SDS011;4438;50.890;4.726;2023-07-20T05:08:04;11.77;;;10.13;;
8803;SDS011;4438;50.890;4.726;2023-07-20T05:10:30;12.20;;;8.97;;
8803;SDS011;4438;50.890;4.726;2023-07-20T05:12:57;10.23;;;8.20;;
8803;SDS011;4438;50.890;4.726;2023-07-20T05:15:23;11.70;;;9.20;;
8803;SDS011;4438;50.890;4.726;2023-07-20T05:17:49;10.33;;;9.20;;
8803;SDS011;4438;50.890;4.726;2023-07-20T05:20:15;12.07;;;10.80;;
8803;SDS011;4438;50.890;4.726;2023-07-20T05:22:42;14.03;;;10.13;;
8803;SDS011;4438;50.890;4.726;2023-07-20T05:25:08;11.53;;;8.53;;
8803;SDS011;4438;50.890;4.726;2023-07-20T05:27:38;12.07;;;10.53;;
8803;SDS011;4438;50.890;4.726;2023-07-20T05:30:05;14.53;;;10.67;;
8803;SDS011;4438;50.890;4.726;2023-07-20T05:32:32;11.90;;;10.70;;
8803;SDS011;4438;50.890;4.726;2023-07-20T05:34:58;14.57;;;11.57;;
8803;SDS011;4438;50.890;4.726;2023-07-20T05:37:24;13.17;;;11.87;;
8803;SDS011;4438;50.890;4.726;2023-07-20T05:39:50;14.93;;;11.70;;
8803;SDS011;4438;50.890;4.726;2023-07-20T05:42:16;13.20;;;11.00;;
8803;SDS011;4438;50.890;4.726;2023-07-20T05:44:43;13.37;;;11.50;;
8803;SDS011;4438;50.890;4.726;2023-07-20T05:47:09;13.20;;;10.93;;
8803;SDS011;4438;50.890;4.726;2023-07-20T05:49:35;12.10;;;10.57;;
8803;SDS011;4438;50.890;4.726;2023-07-20T05:52:01;14.13;;;11.30;;
8803;SDS011;4438;50.890;4.726;2023-07-20T05:54:27;12.50;;;11.17;;
8803;SDS011;4438;50.890;4.726;2023-07-20T05:56:54;13.20;;;10.67;;
8803;SDS011;4438;50.890;4.726;2023-07-20T05:59:20;11.50;;;9.73;;
8803;SDS011;4438;50.890;4.726;2023-07-20T06:01:46;12.03;;;10.23;;
8803;SDS011;4438;50.890;4.726;2023-07-20T06:04:13;12.47;;;11.03;;
8803;SDS011;4438;50.890;4.726;2023-07-20T06:06:39;11.03;;;9.83;;
8803;SDS011;4438;50.890;4.726;2023-07-20T06:09:06;10.83;;;9.33;;
8803;SDS011;4438;50.890;4.726;2023-07-20T06:11:36;12.10;;;10.03;;
8803;SDS011;4438;50.890;4.726;2023-07-20T06:14:03;13.03;;;11.73;;
8803;SDS011;4438;50.890;4.726;2023-07-20T06:16:29;11.37;;;10.10;;
8803;SDS011;4438;50.890;4.726;2023-07-20T06:18:55;14.37;;;11.23;;
8803;SDS011;4438;50.890;4.726;2023-07-20T06:21:21;11.93;;;10.67;;
8803;SDS011;4438;50.890;4.726;2023-07-20T06:23:47;11.63;;;10.53;;
8803;SDS011;4438;50.890;4.726;2023-07-20T06:26:13;11.60;;;10.40;;
8803;SDS011;4438;50.890;4.726;2023-07-20T06:28:43;15.13;;;12.07;;
8803;SDS011;4438;50.890;4.726;2023-07-20T06:31:09;12.53;;;10.83;;
8803;SDS011;4438;50.890;4.726;2023-07-20T06:33:36;11.83;;;10.63;;
8803;SDS011;4438;50.890;4.726;2023-07-20T06:36:03;15.07;;;11.77;;
8803;SDS011;4438;50.890;4.726;2023-07-20T06:38:29;12.60;;;11.30;;
8803;SDS011;4438;50.890;4.726;2023-07-20T06:40:55;12.83;;;11.53;;
8803;SDS011;4438;50.890;4.726;2023-07-20T06:43:21;12.63;;;11.37;;
8803;SDS011;4438;50.890;4.726;2023-07-20T06:45:53;17.93;;;14.40;;
8803;SDS011;4438;50.890;4.726;2023-07-20T06:48:20;14.17;;;12.60;;
8803;SDS011;4438;50.890;4.726;2023-07-20T06:50:46;15.97;;;13.03;;
8803;SDS011;4438;50.890;4.726;2023-07-20T06:53:12;16.30;;;14.77;;
8803;SDS011;4438;50.890;4.726;2023-07-20T06:55:38;16.37;;;14.63;;
8803;SDS011;4438;50.890;4.726;2023-07-20T06:58:04;15.77;;;14.03;;
8803;SDS011;4438;50.890;4.726;2023-07-20T07:00:30;15.53;;;13.93;;
8803;SDS011;4438;50.890;4.726;2023-07-20T07:02:56;15.37;;;13.87;;
8803;SDS011;4438;50.890;4.726;2023-07-20T07:05:22;14.53;;;13.13;;
8803;SDS011;4438;50.890;4.726;2023-07-20T07:07:49;13.20;;;12.00;;
8803;SDS011;4438;50.890;4.726;2023-07-20T07:10:15;14.07;;;12.67;;
8803;SDS011;4438;50.890;4.726;2023-07-20T07:12:41;14.60;;;13.20;;
8803;SDS011;4438;50.890;4.726;2023-07-20T07:15:07;15.13;;;13.53;;
8803;SDS011;4438;50.890;4.726;2023-07-20T07:17:33;13.93;;;12.73;;
8803;SDS011;4438;50.890;4.726;2023-07-20T07:20:00;14.20;;;12.90;;
8803;SDS011;4438;50.890;4.726;2023-07-20T07:22:26;13.60;;;12.30;;
8803;SDS011;4438;50.890;4.726;2023-07-20T07:24:52;14.53;;;13.13;;
8803;SDS011;4438;50.890;4.726;2023-07-20T07:27:19;14.07;;;12.67;;
8803;SDS011;4438;50.890;4.726;2023-07-20T07:29:45;14.87;;;13.47;;
8803;SDS011;4438;50.890;4.726;2023-07-20T07:32:12;15.37;;;13.90;;
8803;SDS011;4438;50.890;4.726;2023-07-20T07:34:38;14.87;;;13.33;;
8803;SDS011;4438;50.890;4.726;2023-07-20T07:37:04;12.80;;;11.60;;
8803;SDS011;4438;50.890;4.726;2023-07-20T07:39:30;12.80;;;11.60;;
8803;SDS011;4438;50.890;4.726;2023-07-20T07:41:56;15.50;;;13.90;;
8803;SDS011;4438;50.890;4.726;2023-07-20T07:44:23;13.87;;;12.23;;
8803;SDS011;4438;50.890;4.726;2023-07-20T07:46:49;14.90;;;13.40;;
8803;SDS011;4438;50.890;4.726;2023-07-20T07:49:16;12.03;;;10.90;;
8803;SDS011;4438;50.890;4.726;2023-07-20T07:51:44;10.80;;;9.77;;
8803;SDS011;4438;50.890;4.726;2023-07-20T07:54:11;11.23;;;10.23;;
8803;SDS011;4438;50.890;4.726;2023-07-20T07:56:37;10.17;;;9.17;;
8803;SDS011;4438;50.890;4.726;2023-07-20T07:59:03;11.03;;;10.03;;
8803;SDS011;4438;50.890;4.726;2023-07-20T08:01:29;14.60;;;13.30;;
8803;SDS011;4438;50.890;4.726;2023-07-20T08:03:55;11.70;;;10.63;;
8803;SDS011;4438;50.890;4.726;2023-07-20T08:06:22;10.43;;;9.43;;
8803;SDS011;4438;50.890;4.726;2023-07-20T08:08:49;10.73;;;9.73;;
8803;SDS011;4438;50.890;4.726;2023-07-20T08:11:15;15.00;;;13.60;;
8803;SDS011;4438;50.890;4.726;2023-07-20T08:13:42;12.70;;;10.73;;
8803;SDS011;4438;50.890;4.726;2023-07-20T08:16:09;13.50;;;12.40;;
8803;SDS011;4438;50.890;4.726;2023-07-20T08:18:35;11.77;;;10.77;;
8803;SDS011;4438;50.890;4.726;2023-07-20T08:21:02;11.47;;;10.43;;
8803;SDS011;4438;50.890;4.726;2023-07-20T08:23:28;11.43;;;10.23;;
8803;SDS011;4438;50.890;4.726;2023-07-20T08:25:54;11.13;;;10.13;;
8803;SDS011;4438;50.890;4.726;2023-07-20T08:28:20;10.97;;;10.07;;
8803;SDS011;4438;50.890;4.726;2023-07-20T08:30:47;9.90;;;9.00;;
8803;SDS011;4438;50.890;4.726;2023-07-20T08:33:14;12.03;;;10.93;;
8803;SDS011;4438;50.890;4.726;2023-07-20T08:35:40;9.37;;;8.57;;
8803;SDS011;4438;50.890;4.726;2023-07-20T08:38:07;13.37;;;12.17;;
8803;SDS011;4438;50.890;4.726;2023-07-20T08:40:33;10.83;;;9.90;;
8803;SDS011;4438;50.890;4.726;2023-07-20T08:43:00;9.20;;;8.30;;
8803;SDS011;4438;50.890;4.726;2023-07-20T08:45:27;8.90;;;8.20;;
8803;SDS011;4438;50.890;4.726;2023-07-20T08:47:58;7.37;;;6.77;;
8803;SDS011;4438;50.890;4.726;2023-07-20T08:50:25;6.07;;;5.57;;
8803;SDS011;4438;50.890;4.726;2023-07-20T08:52:52;5.97;;;5.20;;
8803;SDS011;4438;50.890;4.726;2023-07-20T08:55:22;7.70;;;6.90;;
8803;SDS011;4438;50.890;4.726;2023-07-20T08:57:55;5.87;;;5.40;;
8803;SDS011;4438;50.890;4.726;2023-07-20T09:00:22;5.10;;;4.70;;
8803;SDS011;4438;50.890;4.726;2023-07-20T09:02:49;5.70;;;5.30;;
8803;SDS011;4438;50.890;4.726;2023-07-20T09:05:18;5.23;;;4.80;;
8803;SDS011;4438;50.890;4.726;2023-07-20T09:07:44;4.17;;;3.83;;
8803;SDS011;4438;50.890;4.726;2023-07-20T09:10:11;4.57;;;4.17;;
8803;SDS011;4438;50.890;4.726;2023-07-20T09:12:38;8.87;;;8.07;;
8803;SDS011;4438;50.890;4.726;2023-07-20T09:15:04;5.83;;;5.23;;
8803;SDS011;4438;50.890;4.726;2023-07-20T09:17:31;5.30;;;4.80;;
8803;SDS011;4438;50.890;4.726;2023-07-20T09:19:57;4.27;;;3.90;;
8803;SDS011;4438;50.890;4.726;2023-07-20T09:22:29;4.10;;;3.80;;
8803;SDS011;4438;50.890;4.726;2023-07-20T09:24:56;3.73;;;3.43;;
8803;SDS011;4438;50.890;4.726;2023-07-20T09:27:22;4.40;;;4.10;;
8803;SDS011;4438;50.890;4.726;2023-07-20T09:29:49;3.87;;;3.57;;
8803;SDS011;4438;50.890;4.726;2023-07-20T09:32:19;3.57;;;3.27;;
8803;SDS011;4438;50.890;4.726;2023-07-20T09:34:49;3.90;;;3.60;;
8803;SDS011;4438;50.890;4.726;2023-07-20T09:37:20;3.90;;;3.60;;
8803;SDS011;4438;50.890;4.726;2023-07-20T09:39:47;3.17;;;2.90;;
8803;SDS011;4438;50.890;4.726;2023-07-20T09:42:14;3.43;;;3.20;;
8803;SDS011;4438;50.890;4.726;2023-07-20T09:44:43;2.80;;;2.57;;
8803;SDS011;4438;50.890;4.726;2023-07-20T09:47:09;3.43;;;3.13;;
8803;SDS011;4438;50.890;4.726;2023-07-20T09:49:39;3.73;;;3.43;;
8803;SDS011;4438;50.890;4.726;2023-07-20T09:52:06;3.43;;;3.00;;
8803;SDS011;4438;50.890;4.726;2023-07-20T09:54:32;3.40;;;3.10;;
8803;SDS011;4438;50.890;4.726;2023-07-20T09:56:59;3.20;;;2.90;;
8803;SDS011;4438;50.890;4.726;2023-07-20T09:59:26;3.27;;;3.07;;
8803;SDS011;4438;50.890;4.726;2023-07-20T10:01:52;4.20;;;3.80;;
8803;SDS011;4438;50.890;4.726;2023-07-20T10:04:19;3.47;;;3.17;;
8803;SDS011;4438;50.890;4.726;2023-07-20T10:06:47;3.40;;;2.90;;
8803;SDS011;4438;50.890;4.726;2023-07-20T10:09:15;3.37;;;3.10;;
8803;SDS011;4438;50.890;4.726;2023-07-20T10:11:45;2.60;;;2.40;;
8803;SDS011;4438;50.890;4.726;2023-07-20T10:14:11;2.93;;;2.50;;
8803;SDS011;4438;50.890;4.726;2023-07-20T10:16:43;2.80;;;2.60;;
8803;SDS011;4438;50.890;4.726;2023-07-20T10:19:23;2.67;;;1.90;;
8803;SDS011;4438;50.890;4.726;2023-07-20T10:21:51;3.03;;;2.43;;
8803;SDS011;4438;50.890;4.726;2023-07-20T10:24:21;2.77;;;2.57;;
8803;SDS011;4438;50.890;4.726;2023-07-20T10:26:47;2.67;;;2.47;;
8803;SDS011;4438;50.890;4.726;2023-07-20T10:29:13;2.60;;;2.40;;
8803;SDS011;4438;50.890;4.726;2023-07-20T10:31:40;2.40;;;2.20;;
8803;SDS011;4438;50.890;4.726;2023-07-20T10:34:06;2.10;;;2.00;;
8803;SDS011;4438;50.890;4.726;2023-07-20T10:36:32;2.10;;;1.90;;
8803;SDS011;4438;50.890;4.726;2023-07-20T10:38:58;2.43;;;1.93;;
8803;SDS011;4438;50.890;4.726;2023-07-20T10:41:32;2.30;;;2.00;;
8803;SDS011;4438;50.890;4.726;2023-07-20T10:44:06;3.30;;;2.40;;
8803;SDS011;4438;50.890;4.726;2023-07-20T10:49:05;2.20;;;2.00;;
8803;SDS011;4438;50.890;4.726;2023-07-20T10:51:42;1.90;;;1.80;;
8803;SDS011;4438;50.890;4.726;2023-07-20T10:56:44;1.97;;;1.80;;
8803;SDS011;4438;50.890;4.726;2023-07-20T11:01:49;2.00;;;1.90;;
8803;SDS011;4438;50.890;4.726;2023-07-20T11:04:15;1.77;;;1.67;;
8803;SDS011;4438;50.890;4.726;2023-07-20T11:06:45;2.77;;;1.70;;
8803;SDS011;4438;50.890;4.726;2023-07-20T11:09:12;1.70;;;1.60;;
8803;SDS011;4438;50.890;4.726;2023-07-20T11:11:42;1.70;;;1.60;;
8803;SDS011;4438;50.890;4.726;2023-07-20T11:14:09;2.23;;;1.80;;
8803;SDS011;4438;50.890;4.726;2023-07-20T11:16:43;1.60;;;1.50;;
8803;SDS011;4438;50.890;4.726;2023-07-20T11:21:42;1.70;;;1.60;;
8803;SDS011;4438;50.890;4.726;2023-07-20T11:24:08;1.90;;;1.80;;
8803;SDS011;4438;50.890;4.726;2023-07-20T11:26:45;2.17;;;1.73;;
8803;SDS011;4438;50.890;4.726;2023-07-20T11:29:12;1.80;;;1.70;;
8803;SDS011;4438;50.890;4.726;2023-07-20T11:31:39;1.80;;;1.70;;
8803;SDS011;4438;50.890;4.726;2023-07-20T11:34:05;1.80;;;1.70;;
8803;SDS011;4438;50.890;4.726;2023-07-20T11:36:32;2.13;;;1.70;;
8803;SDS011;4438;50.890;4.726;2023-07-20T11:38:59;2.07;;;1.80;;
8803;SDS011;4438;50.890;4.726;2023-07-20T11:41:25;2.10;;;1.90;;
8803;SDS011;4438;50.890;4.726;2023-07-20T11:43:54;1.50;;;1.40;;
8803;SDS011;4438;50.890;4.726;2023-07-20T11:46:20;1.80;;;1.70;;
8803;SDS011;4438;50.890;4.726;2023-07-20T11:48:47;1.83;;;1.50;;
8803;SDS011;4438;50.890;4.726;2023-07-20T11:51:16;1.70;;;1.60;;
8803;SDS011;4438;50.890;4.726;2023-07-20T11:53:45;1.77;;;1.67;;
8803;SDS011;4438;50.890;4.726;2023-07-20T11:56:12;4.53;;;1.80;;
8803;SDS011;4438;50.890;4.726;2023-07-20T11:58:43;2.20;;;1.80;;
8803;SDS011;4438;50.890;4.726;2023-07-20T12:01:09;1.73;;;1.63;;
8803;SDS011;4438;50.890;4.726;2023-07-20T12:03:36;2.10;;;1.57;;
8803;SDS011;4438;50.890;4.726;2023-07-20T12:06:06;2.00;;;1.70;;
8803;SDS011;4438;50.890;4.726;2023-07-20T12:08:33;1.63;;;1.53;;
8803;SDS011;4438;50.890;4.726;2023-07-20T12:10:59;2.83;;;1.73;;
8803;SDS011;4438;50.890;4.726;2023-07-20T12:16:21;4.07;;;1.70;;
8803;SDS011;4438;50.890;4.726;2023-07-20T12:18:47;2.30;;;1.93;;
8803;SDS011;4438;50.890;4.726;2023-07-20T12:21:13;1.90;;;1.60;;
8803;SDS011;4438;50.890;4.726;2023-07-20T12:23:39;1.70;;;1.60;;
8803;SDS011;4438;50.890;4.726;2023-07-20T12:26:09;1.60;;;1.50;;
8803;SDS011;4438;50.890;4.726;2023-07-20T12:28:36;2.03;;;1.80;;
8803;SDS011;4438;50.890;4.726;2023-07-20T12:31:05;1.90;;;1.60;;
8803;SDS011;4438;50.890;4.726;2023-07-20T12:33:31;2.20;;;1.70;;
8803;SDS011;4438;50.890;4.726;2023-07-20T12:35:57;3.40;;;1.70;;
8803;SDS011;4438;50.890;4.726;2023-07-20T12:38:24;2.50;;;1.53;;
8803;SDS011;4438;50.890;4.726;2023-07-20T12:40:52;1.60;;;1.50;;
8803;SDS011;4438;50.890;4.726;2023-07-20T12:43:20;2.13;;;1.80;;
8803;SDS011;4438;50.890;4.726;2023-07-20T12:45:46;2.17;;;1.60;;
8803;SDS011;4438;50.890;4.726;2023-07-20T12:48:12;1.60;;;1.50;;
8803;SDS011;4438;50.890;4.726;2023-07-20T12:50:39;1.90;;;1.60;;
8803;SDS011;4438;50.890;4.726;2023-07-20T12:53:05;2.40;;;1.50;;
8803;SDS011;4438;50.890;4.726;2023-07-20T12:55:31;1.70;;;1.60;;
8803;SDS011;4438;50.890;4.726;2023-07-20T12:57:57;1.40;;;1.30;;
8803;SDS011;4438;50.890;4.726;2023-07-20T13:00:23;1.60;;;1.50;;
8803;SDS011;4438;50.890;4.726;2023-07-20T13:02:50;2.33;;;1.70;;
8803;SDS011;4438;50.890;4.726;2023-07-20T13:05:16;2.00;;;1.80;;
8803;SDS011;4438;50.890;4.726;2023-07-20T13:07:42;2.50;;;1.50;;
8803;SDS011;4438;50.890;4.726;2023-07-20T13:10:09;1.87;;;1.67;;
8803;SDS011;4438;50.890;4.726;2023-07-20T13:12:35;1.73;;;1.50;;
8803;SDS011;4438;50.890;4.726;2023-07-20T13:15:02;1.77;;;1.67;;
8803;SDS011;4438;50.890;4.726;2023-07-20T13:17:31;1.50;;;1.40;;
8803;SDS011;4438;50.890;4.726;2023-07-20T13:19:57;2.43;;;1.60;;
8803;SDS011;4438;50.890;4.726;2023-07-20T13:22:23;2.10;;;1.50;;
8803;SDS011;4438;50.890;4.726;2023-07-20T13:24:49;1.60;;;1.50;;
8803;SDS011;4438;50.890;4.726;2023-07-20T13:27:16;1.43;;;1.33;;
8803;SDS011;4438;50.890;4.726;2023-07-20T13:29:43;2.00;;;1.63;;
8803;SDS011;4438;50.890;4.726;2023-07-20T13:32:09;2.00;;;1.80;;
8803;SDS011;4438;50.890;4.726;2023-07-20T13:34:36;1.60;;;1.50;;
8803;SDS011;4438;50.890;4.726;2023-07-20T13:37:02;1.80;;;1.43;;
8803;SDS011;4438;50.890;4.726;2023-07-20T13:39:28;1.80;;;1.70;;
8803;SDS011;4438;50.890;4.726;2023-07-20T13:41:54;4.73;;;1.77;;
8803;SDS011;4438;50.890;4.726;2023-07-20T13:44:20;1.90;;;1.70;;
8803;SDS011;4438;50.890;4.726;2023-07-20T13:46:50;2.23;;;1.90;;
8803;SDS011;4438;50.890;4.726;2023-07-20T13:49:16;1.70;;;1.60;;
8803;SDS011;4438;50.890;4.726;2023-07-20T13:51:42;1.73;;;1.60;;
8803;SDS011;4438;50.890;4.726;2023-07-20T13:54:08;2.90;;;1.90;;
8803;SDS011;4438;50.890;4.726;2023-07-20T13:56:34;2.50;;;2.30;;
8803;SDS011;4438;50.890;4.726;2023-07-20T13:59:00;2.77;;;2.10;;
8803;SDS011;4438;50.890;4.726;2023-07-20T14:01:26;2.10;;;2.00;;
8803;SDS011;4438;50.890;4.726;2023-07-20T14:03:58;2.90;;;2.20;;
8803;SDS011;4438;50.890;4.726;2023-07-20T14:06:24;2.53;;;2.00;;
8803;SDS011;4438;50.890;4.726;2023-07-20T14:08:50;2.40;;;2.20;;
8803;SDS011;4438;50.890;4.726;2023-07-20T14:11:18;2.97;;;1.90;;
8803;SDS011;4438;50.890;4.726;2023-07-20T14:13:44;2.60;;;2.40;;
8803;SDS011;4438;50.890;4.726;2023-07-20T14:16:10;2.30;;;2.10;;
8803;SDS011;4438;50.890;4.726;2023-07-20T14:18:36;3.73;;;2.30;;
8803;SDS011;4438;50.890;4.726;2023-07-20T14:21:02;2.27;;;2.10;;
8803;SDS011;4438;50.890;4.726;2023-07-20T14:23:30;2.30;;;2.10;;
8803;SDS011;4438;50.890;4.726;2023-07-20T14:25:56;2.30;;;2.10;;
8803;SDS011;4438;50.890;4.726;2023-07-20T14:28:23;2.03;;;1.83;;
8803;SDS011;4438;50.890;4.726;2023-07-20T14:30:49;3.87;;;2.23;;
8803;SDS011;4438;50.890;4.726;2023-07-20T14:33:15;3.17;;;2.10;;
8803;SDS011;4438;50.890;4.726;2023-07-20T14:35:41;2.13;;;2.00;;
8803;SDS011;4438;50.890;4.726;2023-07-20T14:38:07;2.20;;;2.00;;
8803;SDS011;4438;50.890;4.726;2023-07-20T14:40:33;1.77;;;1.67;;
8803;SDS011;4438;50.890;4.726;2023-07-20T14:42:59;1.93;;;1.70;;
8803;SDS011;4438;50.890;4.726;2023-07-20T14:45:28;2.07;;;1.97;;
8803;SDS011;4438;50.890;4.726;2023-07-20T14:47:54;1.67;;;1.57;;
8803;SDS011;4438;50.890;4.726;2023-07-20T14:50:20;1.70;;;1.60;;
8803;SDS011;4438;50.890;4.726;2023-07-20T14:52:46;1.70;;;1.60;;
8803;SDS011;4438;50.890;4.726;2023-07-20T14:55:12;1.70;;;1.60;;
8803;SDS011;4438;50.890;4.726;2023-07-20T14:57:39;1.80;;;1.70;;
8803;SDS011;4438;50.890;4.726;2023-07-20T15:00:05;3.47;;;2.00;;
8803;SDS011;4438;50.890;4.726;2023-07-20T15:02:37;2.70;;;1.90;;
8803;SDS011;4438;50.890;4.726;2023-07-20T15:05:06;2.10;;;1.93;;
8803;SDS011;4438;50.890;4.726;2023-07-20T15:07:32;1.83;;;1.73;;
8803;SDS011;4438;50.890;4.726;2023-07-20T15:09:58;1.87;;;1.73;;
8803;SDS011;4438;50.890;4.726;2023-07-20T15:12:24;2.07;;;1.90;;
8803;SDS011;4438;50.890;4.726;2023-07-20T15:15:06;2.07;;;1.87;;
8803;SDS011;4438;50.890;4.726;2023-07-20T15:17:33;1.63;;;1.50;;
8803;SDS011;4438;50.890;4.726;2023-07-20T15:20:00;2.00;;;1.77;;
8803;SDS011;4438;50.890;4.726;2023-07-20T15:22:29;1.70;;;1.60;;
8803;SDS011;4438;50.890;4.726;2023-07-20T15:24:56;2.90;;;1.80;;
8803;SDS011;4438;50.890;4.726;2023-07-20T15:27:22;2.00;;;1.77;;
8803;SDS011;4438;50.890;4.726;2023-07-20T15:29:48;1.77;;;1.67;;
8803;SDS011;4438;50.890;4.726;2023-07-20T15:32:14;1.83;;;1.73;;